Time;durP1;ratioP1;P1;durP2;ratioP2;P2;SDS_P1;SDS_P2;PMS_P1;PMS_P2;Temp;Humidity;BMP_temperature;BMP_pressure;BME280_temperature;BME280_humidity;BME280_pressure;Samples;Min_cycle;Max_cycle;Signal;HPM_P1;HPM_P2
2022/04/26 03:37:36;;;;;;;19.65;10.70;;;;;;;12.97;73.50;99054.28;5024864;28;20041;-93
2022/04/26 03:40:02;;;;;;;20.85;9.70;;;;;;;13.04;73.58;99069.03;5004257;28;20029;-93
2022/04/26 03:42:28;;;;;;;21.77;9.52;;;;;;;12.82;73.66;99058.81;5005067;28;20032;-93
2022/04/26 03:44:53;;;;;;;35.35;10.27;;;;;;;12.87;73.71;99069.56;5004454;28;20404;-92
2022/04/26 03:47:18;;;;;;;26.55;10.90;;;;;;;12.82;74.07;99066.91;5005839;28;20069;-94
2022/04/26 03:49:44;;;;;;;30.88;9.55;;;;;;;12.86;74.32;99081.44;5005589;28;20036;-93
2022/04/26 03:52:10;;;;;;;20.35;10.45;;;;;;;12.82;73.62;99071.50;5004960;28;20029;-93
2022/04/26 03:54:35;;;;;;;25.65;9.48;;;;;;;12.86;73.91;99080.66;5011427;28;20040;-93
2022/04/26 03:57:01;;;;;;;26.10;9.82;;;;;;;12.82;73.60;99082.31;5005054;28;20384;-93
2022/04/26 03:59:26;;;;;;;23.33;9.65;;;;;;;12.81;73.78;99080.72;5004204;28;20052;-93
2022/04/26 04:01:52;;;;;;;26.00;9.68;;;;;;;12.85;73.63;99090.66;5004909;28;20022;-92
2022/04/26 04:04:17;;;;;;;25.45;10.82;;;;;;;12.78;73.90;99084.00;5021166;28;20021;-90
2022/04/26 04:06:52;;;;;;;29.15;10.25;;;;;;;12.99;73.31;99100.75;5004176;28;20026;-93
2022/04/26 04:09:17;;;;;;;28.88;10.77;;;;;;;12.88;73.16;99086.56;5003773;28;20112;-93
2022/04/26 04:11:43;;;;;;;26.23;10.82;;;;;;;12.77;74.08;99104.00;5004932;28;20114;-95
2022/04/26 04:14:08;;;;;;;21.67;9.98;;;;;;;12.70;73.60;99102.47;5005266;28;20087;-95
2022/04/26 04:16:34;;;;;;;22.63;10.27;;;;;;;12.72;73.92;99108.38;5004947;28;20057;-93
2022/04/26 04:19:17;;;;;;;26.73;9.40;;;;;;;12.83;73.63;99111.75;5021532;28;20104;-95
2022/04/26 04:21:43;;;;;;;22.23;10.90;;;;;;;12.93;73.32;99119.75;5009550;28;20120;-94
2022/04/26 04:24:08;;;;;;;27.42;12.10;;;;;;;13.03;73.10;99118.81;5004227;28;20025;-94
2022/04/26 04:26:34;;;;;;;21.60;11.77;;;;;;;13.13;72.98;99115.16;5005631;28;20472;-94
2022/04/26 04:28:59;;;;;;;25.90;10.90;;;;;;;13.26;72.55;99109.03;5003831;28;20083;-95
2022/04/26 04:31:26;;;;;;;33.08;10.68;;;;;;;13.37;72.36;99127.84;5004755;28;20480;-93
2022/04/26 04:34:01;;;;;;;24.52;9.55;;;;;;;13.03;72.65;99101.75;5008435;28;20033;-95
2022/04/26 04:36:27;;;;;;;29.30;10.10;;;;;;;13.17;72.91;99118.06;5006850;28;20069;-93
2022/04/26 04:38:53;;;;;;;52.22;11.23;;;;;;;13.17;72.40;99118.88;4990219;28;20546;-93
2022/04/26 04:41:19;;;;;;;44.58;12.55;;;;;;;13.25;72.97;99131.75;5005003;28;20033;-95
2022/04/26 04:43:45;;;;;;;40.38;9.15;;;;;;;13.31;72.24;99133.31;4989359;28;20030;-95
2022/04/26 04:46:11;;;;;;;23.63;8.50;;;;;;;13.26;72.24;99146.06;5008338;28;20091;-95
2022/04/26 04:48:36;;;;;;;27.85;9.23;;;;;;;13.35;71.96;99152.47;4991451;28;20036;-96
2022/04/26 04:51:02;;;;;;;27.70;9.00;;;;;;;13.24;71.11;99127.44;4988408;28;20030;-95
2022/04/26 04:53:28;;;;;;;20.27;8.50;;;;;;;13.39;71.26;99131.84;4989303;28;20026;-92
2022/04/26 04:55:54;;;;;;;29.55;11.25;;;;;;;13.47;71.29;99147.41;4992707;28;20044;-94
2022/04/26 04:58:20;;;;;;;20.23;9.05;;;;;;;13.64;70.93;99144.19;4990039;28;20026;-95
2022/04/26 05:00:45;;;;;;;35.35;9.57;;;;;;;13.60;70.97;99153.19;5022299;28;20068;-93
2022/04/26 05:03:11;;;;;;;24.52;8.60;;;;;;;13.59;70.93;99138.03;5022315;28;20056;-95
2022/04/26 05:05:40;;;;;;;25.23;9.45;;;;;;;13.91;70.46;99162.44;5012048;28;20029;-95
2022/04/26 05:10:42;;;;;;;30.63;9.15;;;;;;;14.08;69.74;99171.91;5024872;26;20057;-93
2022/04/26 05:13:10;;;;;;;30.02;10.43;;;;;;;14.19;69.39;99165.19;4979856;28;20547;-92
2022/04/26 05:15:38;;;;;;;25.30;9.07;;;;;;;14.06;69.54;99164.06;5006758;28;20046;-94
2022/04/26 05:18:06;;;;;;;26.35;10.07;;;;;;;14.09;69.76;99162.66;4971409;28;20376;-88
2022/04/26 05:20:32;;;;;;;21.50;9.70;;;;;;;14.25;69.24;99174.84;4983621;28;20040;-89
2022/04/26 05:25:45;;;;;;;26.73;9.73;;;;;;;14.41;68.85;99171.88;4978774;28;20518;-95
2022/04/26 05:28:11;;;;;;;18.95;9.15;;;;;;;14.43;68.56;99159.66;4951086;28;20026;-94
2022/04/26 05:30:37;;;;;;;20.60;10.10;;;;;;;14.69;68.29;99170.03;4968684;28;20545;-92
2022/04/26 05:33:03;;;;;;;39.88;20.95;;;;;;;14.92;67.33;99182.59;4951484;28;20073;-92
2022/04/26 05:35:36;;;;;;;48.60;34.85;;;;;;;14.93;67.37;99173.34;4954330;28;20022;-95
2022/04/26 05:38:02;;;;;;;40.63;12.50;;;;;;;15.01;66.65;99160.19;4988684;28;20377;-93
2022/04/26 05:40:27;;;;;;;25.80;9.93;;;;;;;15.19;65.74;99188.28;4955805;28;20033;-93
2022/04/26 05:42:53;;;;;;;18.10;9.93;;;;;;;15.18;65.66;99179.34;4964502;28;20426;-94
2022/04/26 05:45:18;;;;;;;18.75;9.40;;;;;;;15.39;64.81;99184.34;4981048;28;20014;-94
2022/04/26 05:47:46;;;;;;;19.80;10.73;;;;;;;15.38;64.69;99178.13;4971059;28;20021;-92
2022/04/26 05:50:12;;;;;;;31.15;12.63;;;;;;;15.53;63.88;99176.97;4965619;28;20098;-91
2022/04/26 05:52:38;;;;;;;33.42;15.80;;;;;;;15.69;63.76;99172.00;4964887;28;20112;-93
2022/04/26 05:55:07;;;;;;;28.80;10.70;;;;;;;15.91;62.30;99187.50;4967631;28;20022;-90
2022/04/26 05:57:40;;;;;;;22.23;10.15;;;;;;;15.97;60.85;99183.56;4967559;28;20093;-91
2022/04/26 06:00:10;;;;;;;26.08;11.75;;;;;;;16.21;60.59;99210.41;4952824;28;20022;-93
2022/04/26 06:02:41;;;;;;;23.90;11.77;;;;;;;16.01;60.38;99168.25;4968373;28;20026;-94
2022/04/26 06:05:07;;;;;;;22.80;10.77;;;;;;;16.08;60.08;99176.78;4953347;28;20025;-96
2022/04/26 06:07:35;;;;;;;22.13;9.02;;;;;;;16.24;58.92;99177.19;4955164;28;20034;-94
2022/04/26 06:10:01;;;;;;;19.60;8.43;;;;;;;16.51;58.54;99197.94;4951089;28;20046;-96
2022/04/26 06:12:31;;;;;;;121.72;13.60;;;;;;;16.31;57.96;99174.84;4966667;28;20029;-93
2022/04/26 06:14:56;;;;;;;46.30;9.57;;;;;;;16.59;58.00;99199.13;4956071;28;20035;-94
2022/04/26 06:17:23;;;;;;;19.80;7.65;;;;;;;16.62;57.39;99182.19;4970161;28;20429;-93
2022/04/26 06:19:51;;;;;;;26.73;9.68;;;;;;;16.75;57.64;99167.69;4952217;28;20050;-93
2022/04/26 06:22:20;;;;;;;26.92;11.65;;;;;;;16.91;57.51;99172.72;4968245;28;20031;-95
2022/04/26 06:24:45;;;;;;;27.45;9.45;;;;;;;17.06;56.78;99168.78;4947687;28;20117;-91
2022/04/26 06:27:11;;;;;;;20.52;9.27;;;;;;;17.15;56.85;99183.19;4977769;28;20461;-90
2022/04/26 06:29:36;;;;;;;25.88;7.18;;;;;;;17.23;55.41;99173.44;4963825;28;20026;-89
2022/04/26 06:32:03;;;;;;;17.88;7.03;;;;;;;17.24;55.47;99170.38;4984933;28;20030;-88
2022/04/26 06:34:32;;;;;;;23.92;7.75;;;;;;;17.43;54.70;99172.00;4983001;28;20090;-90
2022/04/26 06:37:01;;;;;;;21.83;7.35;;;;;;;17.45;54.50;99164.31;4986861;28;20600;-91
2022/04/26 06:39:28;;;;;;;14.65;7.15;;;;;;;17.63;54.73;99170.59;4968382;28;20113;-90
2022/04/26 06:42:41;;;;;;;20.60;8.48;;;;;;;17.66;54.48;99184.38;4969340;28;20034;-93
2022/04/26 06:45:07;;;;;;;52.42;8.95;;;;;;;17.70;54.05;99176.34;5002181;28;20030;-93
2022/04/26 06:47:35;;;;;;;111.82;10.38;;;;;;;17.60;53.71;99166.59;4987247;28;20034;-96
2022/04/26 06:50:00;;;;;;;20.30;6.80;;;;;;;17.81;53.04;99165.94;5005666;28;20050;-95
2022/04/26 06:52:28;;;;;;;15.77;6.55;;;;;;;18.03;53.06;99184.84;4992462;28;20030;-92
2022/04/26 06:54:55;;;;;;;15.52;5.63;;;;;;;18.08;52.50;99173.78;5012164;28;20029;-93
2022/04/26 06:57:21;;;;;;;13.30;4.95;;;;;;;18.29;51.49;99181.28;5005548;28;20108;-89
2022/04/26 06:59:47;;;;;;;25.63;6.03;;;;;;;18.38;51.37;99191.03;4985780;28;20492;-91
2022/04/26 07:02:13;;;;;;;13.23;5.85;;;;;;;18.39;50.50;99183.66;4999407;28;20085;-93
2022/04/26 07:08:51;;;;;;;11.25;4.38;;;;;;;18.63;49.63;99190.47;4967691;28;20057;-96
2022/04/26 07:11:20;;;;;;;13.80;5.80;;;;;;;18.69;50.03;99187.25;4959789;29;20556;-90
2022/04/26 07:13:45;;;;;;;14.70;4.97;;;;;;;18.75;49.45;99193.31;4936648;29;20031;-88
2022/04/26 07:16:48;;;;;;;16.00;4.90;;;;;;;18.86;49.13;99197.31;4904812;29;20036;-89
2022/04/26 07:19:14;;;;;;;10.95;4.40;;;;;;;18.95;48.01;99172.72;4932392;29;20028;-91
2022/04/26 07:21:48;;;;;;;13.02;3.70;;;;;;;19.05;47.01;99166.06;4925264;29;20067;-95
2022/04/26 07:24:16;;;;;;;19.60;5.45;;;;;;;19.14;48.10;99188.66;4944079;29;20133;-96
2022/04/26 07:26:47;;;;;;;19.45;4.97;;;;;;;19.04;47.01;99159.03;4926983;29;20024;-90
2022/04/26 07:29:15;;;;;;;24.33;6.28;;;;;;;19.47;46.48;99169.66;4931948;29;20067;-96
2022/04/26 07:31:44;;;;;;;10.55;3.80;;;;;;;19.52;44.76;99153.06;4921422;28;20038;-89
2022/04/26 07:34:23;;;;;;;11.95;3.75;;;;;;;19.87;43.10;99173.88;4946853;28;20027;-91
2022/04/26 07:36:53;;;;;;;10.45;3.65;;;;;;;20.09;42.95;99184.44;4947753;28;20205;-88
2022/04/26 07:39:18;;;;;;;5.72;2.92;;;;;;;20.05;41.61;99169.06;4930080;28;20085;-91
2022/04/26 07:41:53;;;;;;;7.78;3.03;;;;;;;19.97;43.02;99163.31;4947457;28;20035;-89
2022/04/26 07:44:18;;;;;;;6.57;1.95;;;;;;;19.88;37.41;99165.34;4933511;28;20129;-92
2022/04/26 07:49:59;;;;;;;;;;;;;;;;;;;;;
2022/04/26 07:52:36;;;;;;;8.60;1.10;;;;;;;19.81;37.26;99202.53;4984218;28;20081;-92
2022/04/26 07:55:36;;;;;;;1.98;1.23;;;;;;;19.63;36.93;99156.22;4964617;28;20098;-96
2022/04/26 07:58:19;;;;;;;5.45;1.35;;;;;;;19.68;37.63;99171.59;4924650;28;20039;-96
2022/04/26 08:00:58;;;;;;;2.65;1.05;;;;;;;20.02;37.04;99197.03;4983993;28;20041;-94
2022/04/26 08:03:24;;;;;;;4.18;1.45;;;;;;;20.01;37.28;99182.59;4982648;28;20031;-89
2022/04/26 08:05:52;;;;;;;2.97;1.08;;;;;;;20.04;36.75;99176.44;4942985;28;20014;-87
2022/04/26 08:08:18;;;;;;;3.63;1.35;;;;;;;20.23;37.06;99194.25;4956471;28;20022;-87
2022/04/26 08:10:44;;;;;;;4.50;1.00;;;;;;;20.12;37.21;99186.47;4968198;28;20652;-89
2022/04/26 08:13:09;;;;;;;4.75;1.33;;;;;;;20.15;37.11;99176.78;4978650;28;20026;-90
2022/04/26 08:15:35;;;;;;;2.75;1.13;;;;;;;20.24;37.42;99166.59;4966235;28;20061;-90
2022/04/26 08:18:00;;;;;;;6.63;2.90;;;;;;;20.23;37.14;99172.38;4982908;28;20026;-90
2022/04/26 08:20:26;;;;;;;4.75;1.88;;;;;;;20.48;37.24;99193.19;4948628;28;20018;-91
2022/04/26 08:22:52;;;;;;;5.07;1.50;;;;;;;20.41;37.11;99164.81;4980423;28;20050;-92
2022/04/26 08:28:08;;;;;;;2.50;1.00;;;;;;;20.58;37.13;99175.56;4991256;28;20095;-93
2022/04/26 08:30:36;;;;;;;14.70;1.60;;;;;;;20.67;37.24;99189.13;4994652;28;20503;-94
2022/04/26 08:33:04;;;;;;;11.90;2.50;;;;;;;20.71;37.05;99179.94;4977450;28;20049;-96
2022/04/26 08:35:37;;;;;;;2.00;1.05;;;;;;;20.76;36.14;99182.41;4986948;28;20527;-88
2022/04/26 08:38:03;;;;;;;4.18;2.30;;;;;;;20.91;36.57;99177.41;4970055;28;20080;-96
2022/04/26 08:40:30;;;;;;;4.97;1.33;;;;;;;21.08;36.65;99185.38;4970486;28;20129;-95
2022/04/26 08:42:56;;;;;;;2.35;0.70;;;;;;;21.04;36.05;99175.47;4968832;28;20052;-89
2022/04/26 08:45:22;;;;;;;4.28;1.08;;;;;;;21.02;36.38;99172.28;4989655;28;20036;-95
2022/04/26 08:53:40;;;;;;;5.43;1.20;;;;;;;21.28;35.94;99182.88;5000335;28;20069;-92
2022/04/26 08:56:09;;;;;;;3.20;1.55;;;;;;;21.24;35.92;99166.31;4995319;28;20037;-89
2022/04/26 08:58:36;;;;;;;3.78;1.35;;;;;;;21.24;35.75;99165.53;4969376;28;20092;-95
2022/04/26 09:01:18;;;;;;;3.85;1.98;;;;;;;21.17;35.71;99158.69;4953659;28;20065;-94
2022/04/26 09:03:56;;;;;;;5.10;1.13;;;;;;;21.37;35.74;99181.59;4954639;28;20026;-95
2022/04/26 09:06:59;;;;;;;6.38;2.28;;;;;;;21.39;36.30;99183.97;4985606;28;20018;-93
2022/04/26 09:24:57;;;;;;;1.73;0.80;;;;;;;21.90;34.82;99183.53;4899080;29;20549;-89
2022/04/26 09:27:23;;;;;;;2.47;0.80;;;;;;;21.85;34.42;99164.56;4913270;29;20040;-90
2022/04/26 09:29:50;;;;;;;4.90;0.90;;;;;;;21.85;34.21;99157.16;4949788;29;20062;-94
2022/04/26 09:32:23;;;;;;;8.40;1.65;;;;;;;22.06;34.97;99178.06;4944468;29;20023;-91
2022/04/26 09:41:11;;;;;;;2.33;0.50;;;;;;;21.93;32.96;99163.63;4967912;28;20073;-94
2022/04/26 09:43:37;;;;;;;1.98;0.80;;;;;;;21.71;33.04;99146.59;4953379;28;20074;-92
2022/04/26 09:46:04;;;;;;;3.83;0.80;;;;;;;21.82;32.82;99146.88;4932730;28;20034;-93
2022/04/26 09:48:39;;;;;;;1.42;0.68;;;;;;;21.98;31.58;99161.44;4933664;28;20130;-94
2022/04/26 09:51:06;;;;;;;2.92;0.75;;;;;;;21.94;31.94;99146.03;4933358;28;20030;-92
2022/04/26 09:53:40;;;;;;;1.67;0.70;;;;;;;22.22;32.18;99134.22;4930381;28;20529;-93
2022/04/26 09:56:09;;;;;;;1.58;0.80;;;;;;;22.45;31.09;99148.97;4947290;28;20022;-92
2022/04/26 09:58:55;;;;;;;4.68;1.75;;;;;;;22.49;31.74;99151.81;4974246;28;20054;-93
2022/04/26 10:01:21;;;;;;;3.80;0.82;;;;;;;22.52;31.44;99138.19;4982894;28;20054;-92
2022/04/26 10:03:51;;;;;;;2.63;0.82;;;;;;;22.62;30.77;99155.25;4964308;28;20049;-95
2022/04/26 10:06:18;;;;;;;1.45;0.75;;;;;;;22.64;31.57;99134.56;4985796;28;20173;-95
2022/04/26 10:08:44;;;;;;;2.28;1.00;;;;;;;22.60;31.03;99125.44;4937864;29;20055;-96
2022/04/26 10:11:10;;;;;;;4.13;0.90;;;;;;;22.84;30.27;99129.91;4911635;29;20135;-94
2022/04/26 10:13:39;;;;;;;3.47;1.13;;;;;;;22.88;30.39;99133.53;4912540;29;20035;-94
2022/04/26 10:16:21;;;;;;;3.85;0.63;;;;;;;22.76;30.62;99134.44;4911309;29;20059;-93
2022/04/26 10:18:55;;;;;;;1.48;0.88;;;;;;;22.84;31.02;99143.63;4913308;29;20043;-93
2022/04/26 10:21:20;;;;;;;5.32;0.95;;;;;;;22.93;31.92;99151.69;4931196;29;20038;-95
2022/04/26 10:23:56;;;;;;;3.22;0.70;;;;;;;22.99;31.34;99142.00;4941661;29;20044;-95
2022/04/26 10:26:31;;;;;;;1.52;0.70;;;;;;;22.79;30.97;99113.72;4923079;29;20075;-96
2022/04/26 10:29:17;;;;;;;2.30;0.52;;;;;;;22.89;30.41;99146.13;4903228;29;20048;-94
2022/04/26 10:31:50;;;;;;;4.00;1.17;;;;;;;22.88;30.89;99132.75;4895195;29;20414;-92
2022/04/26 10:37:05;;;;;;;8.05;1.02;;;;;;;22.92;31.17;99144.59;4922273;29;20039;-93
2022/04/26 10:40:01;;;;;;;5.72;1.35;;;;;;;22.88;31.66;99158.25;4951680;28;20035;-94
2022/04/26 10:42:37;;;;;;;11.38;1.48;;;;;;;22.72;31.37;99136.31;4935395;29;20034;-93
2022/04/26 10:45:10;;;;;;;2.70;1.00;;;;;;;22.81;31.53;99144.38;4941855;29;20040;-96
2022/04/26 10:47:36;;;;;;;1.45;0.80;;;;;;;22.70;31.47;99133.13;4935905;29;20421;-95
2022/04/26 10:50:47;;;;;;;2.00;0.82;;;;;;;22.97;31.40;99158.06;4920219;29;20023;-95
2022/04/26 10:53:45;;;;;;;2.85;0.70;;;;;;;23.04;30.41;99152.78;4963184;29;20036;-96
2022/04/26 10:56:11;;;;;;;1.67;0.80;;;;;;;22.92;30.52;99133.63;4937175;29;20027;-95
2022/04/26 10:58:36;;;;;;;2.35;0.82;;;;;;;22.99;30.90;99142.00;4916919;29;20086;-93
2022/04/26 11:01:11;;;;;;;2.35;0.80;;;;;;;22.94;30.38;99131.31;4919898;29;20067;-95
2022/04/26 11:03:53;;;;;;;9.93;4.63;;;;;;;23.14;30.31;99118.47;4929350;29;20031;-91
2022/04/26 11:06:35;;;;;;;1.73;0.93;;;;;;;23.42;30.01;99140.25;4959462;28;20450;-87
2022/04/26 11:09:15;;;;;;;6.80;1.42;;;;;;;23.52;29.66;99134.19;4944380;29;20042;-93
2022/04/26 11:11:53;;;;;;;1.98;0.90;;;;;;;23.51;28.49;99118.88;4954335;29;20067;-93
2022/04/26 11:14:20;;;;;;;5.70;0.80;;;;;;;23.52;28.47;99127.91;4934441;29;20039;-89
2022/04/26 11:16:59;;;;;;;2.42;0.80;;;;;;;23.82;28.23;99128.13;4929616;28;20031;-87
2022/04/26 11:19:31;;;;;;;3.72;0.80;;;;;;;23.82;29.01;99122.63;4956306;28;20042;-91
2022/04/26 11:22:07;;;;;;;2.38;0.70;;;;;;;23.98;29.00;99144.53;4961688;28;20054;-91
2022/04/26 11:30:43;;;;;;;7.22;1.00;;;;;;;23.66;28.40;99124.63;4973086;28;20057;-88
2022/04/26 11:33:11;;;;;;;2.90;0.68;;;;;;;23.76;28.33;99124.88;5011775;28;20089;-91
2022/04/26 11:35:36;;;;;;;5.72;2.38;;;;;;;23.83;28.68;99120.69;4972420;28;20428;-91
2022/04/26 11:38:08;;;;;;;6.45;1.17;;;;;;;23.87;28.24;99130.59;4967266;28;20026;-91
2022/04/26 11:40:38;;;;;;;;;;;;;;;23.81;28.55;99140.28;4969018;28;20090;-91
2022/04/26 11:43:15;;;;;;;3.20;0.82;;;;;;;23.77;27.78;99131.97;4983412;28;19941;-93
2022/04/26 11:45:42;;;;;;;4.18;2.00;;;;;;;23.83;27.97;99132.47;4967022;28;20018;-89
2022/04/26 11:48:26;;;;;;;8.35;1.98;;;;;;;23.47;28.28;99101.50;5005699;28;20424;-96
2022/04/26 11:50:53;;;;;;;1.75;0.70;;;;;;;23.37;28.35;99113.06;4994831;28;20400;-88
2022/04/26 11:53:24;;;;;;;7.05;1.00;;;;;;;23.38;28.06;99111.91;5008510;28;20046;-86
2022/04/26 11:56:05;;;;;;;5.47;0.82;;;;;;;23.48;28.37;99113.28;4987064;28;20116;-95
2022/04/26 11:58:34;;;;;;;1.45;0.88;;;;;;;23.55;27.94;99119.72;5008133;28;20076;-95
2022/04/26 12:01:20;;;;;;;2.97;0.82;;;;;;;23.48;28.69;99107.78;4992092;28;20030;-95
2022/04/26 12:03:52;;;;;;;1.80;0.80;;;;;;;23.26;29.09;99092.81;4989067;28;20034;-93
2022/04/26 12:06:28;;;;;;;4.15;0.80;;;;;;;23.27;29.42;99097.16;4985761;28;20183;-91
2022/04/26 12:08:55;;;;;;;8.07;2.10;;;;;;;23.30;29.14;99077.97;4972029;28;20030;-93
2022/04/26 12:11:22;;;;;;;4.38;1.20;;;;;;;23.39;29.22;99086.03;4987033;28;20014;-94
2022/04/26 12:14:14;;;;;;;1.50;0.88;;;;;;;23.59;28.96;99103.28;4986015;28;20048;-93
2022/04/26 12:16:47;;;;;;;3.67;1.00;;;;;;;23.45;29.33;99067.28;4988469;28;20422;-94
2022/04/26 12:19:14;;;;;;;3.50;1.48;;;;;;;23.58;29.23;99061.28;4971351;28;20037;-92
2022/04/26 12:21:51;;;;;;;4.28;0.90;;;;;;;23.66;30.00;99075.97;5002615;28;20018;-94
2022/04/26 12:25:10;;;;;;;2.72;0.77;;;;;;;23.73;29.57;99061.53;4988352;28;20055;-92
2022/04/26 12:27:35;;;;;;;7.50;1.92;;;;;;;23.98;29.56;99073.03;5000992;28;20069;-93
2022/04/26 12:30:01;;;;;;;4.55;1.17;;;;;;;23.98;28.83;99078.53;4983481;28;20071;-92
2022/04/26 12:32:28;;;;;;;19.83;2.05;;;;;;;23.80;29.49;99062.50;4983849;28;20090;-90
2022/04/26 12:34:57;;;;;;;2.67;0.80;;;;;;;23.98;29.35;99062.81;4970409;28;20033;-94
2022/04/26 12:37:29;;;;;;;3.90;1.27;;;;;;;23.98;29.62;99051.81;4988823;28;20089;-95
2022/04/26 12:40:04;;;;;;;5.30;1.35;;;;;;;24.06;28.88;99065.69;4977478;28;20048;-95
2022/04/26 12:42:34;;;;;;;2.45;0.90;;;;;;;23.98;29.10;99073.81;4993485;28;20026;-95
2022/04/26 12:45:03;;;;;;;3.10;1.05;;;;;;;23.91;29.11;99045.41;4991978;28;20049;-94
2022/04/26 12:50:29;;;;;;;1.92;0.80;;;;;;;24.04;29.71;99074.31;4997559;28;20566;-88
2022/04/26 12:52:56;;;;;;;6.35;2.20;;;;;;;23.83;29.91;99051.94;4992121;28;20160;-88
2022/04/26 12:55:37;;;;;;;11.25;1.65;;;;;;;23.93;29.88;99056.84;4969207;28;20088;-89
2022/04/26 12:58:22;;;;;;;1.33;0.70;;;;;;;24.17;29.20;99067.47;5021379;28;20083;-88
2022/04/26 13:00:52;;;;;;;5.32;0.82;;;;;;;23.98;28.81;99046.31;5001016;28;20038;-89
2022/04/26 13:03:19;;;;;;;9.73;4.00;;;;;;;24.09;29.94;99053.97;4989230;28;20061;-88
2022/04/26 13:05:54;;;;;;;6.05;2.40;;;;;;;23.99;29.19;99031.41;4966198;28;20105;-92
2022/04/26 13:08:20;;;;;;;8.00;3.50;;;;;;;23.95;29.67;99033.31;4961107;28;20026;-90
2022/04/26 13:10:49;;;;;;;2.50;1.00;;;;;;;24.07;29.01;99026.81;4966615;28;20027;-91
2022/04/26 13:16:44;;;;;;;3.60;1.08;;;;;;;24.16;28.89;99043.09;4927746;29;20123;-94
2022/04/26 13:19:12;;;;;;;6.18;1.90;;;;;;;24.10;29.35;99033.56;4897003;29;20044;-92
2022/04/26 13:21:37;;;;;;;4.43;1.17;;;;;;;24.11;29.25;99024.91;4923200;29;20027;-92
2022/04/26 13:24:04;;;;;;;4.00;1.00;;;;;;;24.07;28.59;99026.03;4908661;29;20092;-91
2022/04/26 13:26:41;;;;;;;4.43;1.10;;;;;;;23.97;29.28;99016.44;4894084;29;20032;-92
2022/04/26 13:29:09;;;;;;;18.75;1.70;;;;;;;24.05;29.25;99037.41;4896177;29;20051;-92
2022/04/26 13:45:22;;;;;;;7.55;1.20;;;;;;;24.61;28.46;99038.69;4851080;29;20495;-92
2022/04/26 13:47:49;;;;;;;6.15;2.60;;;;;;;24.54;29.48;99022.88;4813987;29;20433;-90
2022/04/26 13:50:18;;;;;;;15.30;2.15;;;;;;;24.65;30.06;99028.50;4811990;29;20041;-89
2022/04/26 13:52:44;;;;;;;6.07;1.80;;;;;;;24.75;29.45;99027.09;4858910;28;20047;-92
2022/04/26 13:55:09;;;;;;;6.32;1.45;;;;;;;25.06;28.60;99045.22;4949153;28;20057;-91
2022/04/26 13:57:38;;;;;;;11.32;4.53;;;;;;;25.01;28.59;99018.00;4951440;28;20034;-92
2022/04/26 14:00:15;;;;;;;14.23;7.22;;;;;;;25.44;28.31;99040.56;4949776;28;20120;-91
2022/04/26 14:02:44;;;;;;;20.33;4.28;;;;;;;25.50;28.04;99030.00;4982054;28;20119;-90
2022/04/26 14:05:10;;;;;;;10.00;2.42;;;;;;;25.52;28.37;99022.94;4983191;28;20085;-93
2022/04/26 14:07:36;;;;;;;8.57;1.55;;;;;;;25.51;28.11;99013.09;4984059;28;20105;-91
2022/04/26 14:10:02;;;;;;;2.92;1.35;;;;;;;25.70;27.54;99019.59;4967696;28;20048;-92
2022/04/26 14:12:28;;;;;;;4.28;1.40;;;;;;;25.81;27.32;99009.44;4966210;28;20088;-90
2022/04/26 14:23:05;;;;;;;14.85;2.40;;;;;;;26.25;28.38;99035.47;4996074;28;20447;-90
2022/04/26 14:25:31;;;;;;;8.52;2.20;;;;;;;26.33;29.74;99050.91;4986363;28;20050;-89
2022/04/26 14:27:57;;;;;;;11.20;2.72;;;;;;;26.64;28.64;99043.28;4970163;28;20455;-89
2022/04/26 14:30:22;;;;;;;16.38;2.63;;;;;;;26.51;28.31;99026.97;4986362;28;20037;-89
2022/04/26 14:32:49;;;;;;;9.57;1.83;;;;;;;26.36;28.84;99033.59;4995054;28;20514;-88
2022/04/26 14:35:14;;;;;;;12.98;2.30;;;;;;;25.76;28.08;99054.72;5003808;28;20034;-88
2022/04/26 14:37:41;;;;;;;10.32;1.98;;;;;;;25.09;28.75;99027.94;4993971;28;20029;-88
2022/04/26 14:40:10;;;;;;;8.43;1.80;;;;;;;24.56;28.90;99053.56;5020186;28;20404;-88
2022/04/26 14:42:37;;;;;;;21.63;2.38;;;;;;;24.28;28.90;99042.06;4982800;28;20099;-88
2022/04/26 14:45:08;;;;;;;9.02;2.17;;;;;;;23.93;28.92;99032.88;5001516;28;20108;-90
2022/04/26 14:47:34;;;;;;;6.80;1.58;;;;;;;23.53;28.88;99036.84;4977522;28;20017;-89
2022/04/26 14:50:08;;;;;;;7.28;1.80;;;;;;;23.50;29.26;99036.78;4999598;28;20453;-91
2022/04/26 14:52:57;;;;;;;9.07;2.20;;;;;;;23.75;28.32;99061.97;4962805;28;20033;-90
2022/04/26 14:55:23;;;;;;;9.70;2.00;;;;;;;23.56;29.18;99040.81;5010983;28;20042;-93
2022/04/26 14:57:49;;;;;;;18.70;2.10;;;;;;;23.58;29.51;99046.75;4974564;28;20045;-93
2022/04/26 15:00:15;;;;;;;7.50;1.75;;;;;;;23.60;29.62;99030.69;4974849;28;20129;-91
2022/04/26 15:02:40;;;;;;;8.77;1.95;;;;;;;23.44;29.50;99033.50;5014475;28;20022;-91
2022/04/26 15:05:10;;;;;;;6.97;1.10;;;;;;;23.40;29.93;99040.91;4953777;28;20045;-89
2022/04/26 15:10:20;;;;;;;6.07;1.70;;;;;;;23.19;30.36;99041.25;4972730;28;20036;-87
2022/04/26 15:18:14;;;;;;;5.82;1.40;;;;;;;23.07;30.08;99016.69;4984202;28;20037;-88
2022/04/26 15:20:41;;;;;;;5.38;1.30;;;;;;;22.95;29.72;99014.81;4986085;28;20033;-89
2022/04/26 15:23:07;;;;;;;4.82;1.23;;;;;;;22.87;29.68;99015.84;4970152;28;20559;-89
2022/04/26 15:25:32;;;;;;;5.82;1.75;;;;;;;22.77;29.79;99009.75;4971418;28;20068;-89
2022/04/26 15:27:58;;;;;;;7.10;1.50;;;;;;;22.63;30.12;99003.97;4986964;28;20451;-89
2022/04/26 15:30:23;;;;;;;6.65;1.40;;;;;;;22.59;29.72;99011.31;4966500;28;20025;-90
2022/04/26 15:32:49;;;;;;;9.77;1.40;;;;;;;22.53;29.61;99013.53;4983914;28;20416;-89
2022/04/26 15:35:14;;;;;;;19.85;2.67;;;;;;;22.46;29.88;99024.34;4982810;28;20088;-88
2022/04/26 15:37:41;;;;;;;14.90;2.95;;;;;;;22.31;29.85;99009.53;4968858;28;20097;-93
2022/04/26 15:40:07;;;;;;;7.13;1.60;;;;;;;22.44;30.05;99036.84;4969359;28;20117;-96
2022/04/26 15:42:33;;;;;;;7.03;1.75;;;;;;;22.32;30.15;99029.50;4968868;28;20041;-91
2022/04/26 15:44:59;;;;;;;5.30;2.03;;;;;;;22.27;30.07;99024.31;4971179;28;20049;-94
2022/04/26 15:47:25;;;;;;;10.98;2.20;;;;;;;22.20;32.50;99035.84;4970198;28;20030;-93
2022/04/26 15:49:51;;;;;;;20.80;2.55;;;;;;;21.92;33.78;99025.78;4970823;28;20056;-93
2022/04/26 15:52:16;;;;;;;6.07;2.47;;;;;;;21.72;34.54;99041.28;4971951;28;20056;-96
2022/04/26 15:54:43;;;;;;;15.23;3.72;;;;;;;21.52;34.74;99028.63;4966045;28;20037;-87
2022/04/26 15:57:10;;;;;;;15.85;3.28;;;;;;;21.51;34.70;99055.22;4997949;28;20022;-87
2022/04/26 15:59:35;;;;;;;10.40;2.33;;;;;;;21.53;35.95;99055.66;4998011;28;20049;-90
2022/04/26 16:02:01;;;;;;;13.70;2.60;;;;;;;21.55;35.89;99058.84;4965419;28;20026;-90
2022/04/26 16:04:27;;;;;;;11.40;2.58;;;;;;;21.58;35.67;99066.41;4965332;28;20044;-90
2022/04/26 16:06:52;;;;;;;27.92;3.03;;;;;;;21.46;35.73;99054.66;4966238;28;20103;-91
2022/04/26 16:20:29;;;;;;;9.48;2.00;;;;;;;21.27;36.14;99121.81;5000476;28;20475;-88
2022/04/26 16:22:55;;;;;;;15.27;4.53;;;;;;;21.18;36.62;99135.63;4984682;28;20515;-87
2022/04/26 16:25:21;;;;;;;12.02;3.00;;;;;;;21.04;37.26;99137.94;5014267;28;20129;-87
2022/04/26 16:27:48;;;;;;;11.85;2.42;;;;;;;21.03;36.76;99141.03;4981828;28;20053;-86
2022/04/26 16:30:14;;;;;;;14.43;4.22;;;;;;;21.02;37.20;99151.16;4997461;28;20034;-87
2022/04/26 16:32:40;;;;;;;7.65;2.60;;;;;;;20.99;37.38;99154.59;4965648;28;20046;-88
2022/04/26 16:35:07;;;;;;;24.35;3.72;;;;;;;21.00;37.87;99169.91;4996712;28;20025;-88
2022/04/26 16:37:33;;;;;;;19.00;4.10;;;;;;;21.02;38.12;99173.06;4996765;28;20032;-88
2022/04/26 16:40:00;;;;;;;13.88;3.38;;;;;;;21.06;38.43;99184.13;4996624;28;20057;-89
2022/04/26 16:42:25;;;;;;;5.97;1.98;;;;;;;21.01;38.20;99178.91;4996665;28;20045;-89
2022/04/26 16:44:51;;;;;;;7.82;2.03;;;;;;;21.04;38.57;99186.41;4981378;28;20455;-88
2022/04/26 16:47:16;;;;;;;11.60;2.10;;;;;;;20.85;39.93;99181.50;4981840;28;20528;-88
2022/04/26 16:49:42;;;;;;;9.45;1.73;;;;;;;20.75;40.65;99190.97;5014271;28;20069;-89
2022/04/26 16:52:07;;;;;;;8.95;2.13;;;;;;;20.67;41.02;99205.53;4997336;28;20030;-88
2022/04/26 16:54:33;;;;;;;19.08;2.90;;;;;;;20.58;42.28;99206.44;4997094;28;20034;-89
2022/04/26 16:57:00;;;;;;;21.90;2.00;;;;;;;20.54;43.15;99205.53;5014912;28;20090;-87